Time;durP1;ratioP1;P1;durP2;ratioP2;P2;SDS_P1;SDS_P2;PMS_P1;PMS_P2;Temp;Humidity;BMP_temperature;BMP_pressure;BME280_temperature;BME280_humidity;BME280_pressure;Samples;Min_cycle;Max_cycle;Signal;HPM_P1;HPM_P2
2022/07/24 00:02:30;;;;;;;6.70;5.35;;;15.00;99.90;;;;;;7356885;32;20115;-63
2022/07/24 00:06:33;;;;;;;8.55;5.97;;;14.90;99.90;;;;;;7356743;32;20183;-62
2022/07/24 00:10:34;;;;;;;7.75;5.47;;;15.00;99.90;;;;;;7355656;32;20186;-65
2022/07/24 00:14:36;;;;;;;6.90;5.95;;;14.90;99.90;;;;;;7357241;32;20292;-62
2022/07/24 00:18:38;;;;;;;9.60;5.32;;;14.90;99.90;;;;;;7356609;32;20125;-63
2022/07/24 00:22:40;;;;;;;9.15;5.25;;;14.90;99.90;;;;;;7356868;32;20175;-63
2022/07/24 00:26:42;;;;;;;13.52;5.45;;;14.90;99.90;;;;;;7356249;32;20236;-63
2022/07/24 00:30:44;;;;;;;10.73;6.05;;;14.80;99.90;;;;;;7355487;32;20128;-63
2022/07/24 00:34:46;;;;;;;10.60;5.55;;;14.80;99.90;;;;;;7334039;32;20161;-63
2022/07/24 00:38:47;;;;;;;7.28;5.45;;;14.80;99.90;;;;;;7330768;32;20160;-63
2022/07/24 00:42:49;;;;;;;9.98;5.62;;;14.80;99.90;;;;;;7330921;32;20277;-63
2022/07/24 00:46:51;;;;;;;7.35;5.55;;;14.70;99.90;;;;;;7331104;32;20164;-64
2022/07/24 00:50:54;;;;;;;9.07;5.57;;;14.70;99.90;;;;;;7329979;32;20119;-62
2022/07/24 00:54:56;;;;;;;6.97;5.12;;;14.70;99.90;;;;;;7330716;32;20134;-62
2022/07/24 00:58:59;;;;;;;13.30;6.47;;;14.70;99.90;;;;;;7348247;32;20162;-62
2022/07/24 01:03:01;;;;;;;8.60;5.40;;;14.70;99.90;;;;;;7356491;32;20528;-62
2022/07/24 01:07:03;;;;;;;10.07;5.50;;;14.70;99.90;;;;;;7361801;32;20213;-63
2022/07/24 01:11:05;;;;;;;10.95;5.82;;;14.70;99.90;;;;;;7354097;32;20103;-63
2022/07/24 01:15:09;;;;;;;9.30;5.55;;;14.60;99.90;;;;;;7335414;32;20125;-63
2022/07/24 01:19:11;;;;;;;7.85;5.87;;;14.60;99.90;;;;;;7334854;32;20108;-64
2022/07/24 01:23:13;;;;;;;12.05;5.62;;;14.50;99.90;;;;;;7335835;32;20247;-62
2022/07/24 01:27:15;;;;;;;9.88;5.62;;;14.50;99.90;;;;;;7335150;32;20648;-63
2022/07/24 01:31:17;;;;;;;7.37;5.82;;;14.50;99.90;;;;;;7334391;32;20219;-62
2022/07/24 01:35:19;;;;;;;10.10;5.90;;;14.50;99.90;;;;;;7335165;32;20175;-63
2022/07/24 01:39:24;;;;;;;10.95;6.07;;;14.50;99.90;;;;;;7333203;32;20164;-62
2022/07/24 01:43:35;;;;;;;10.60;5.30;;;14.40;99.90;;;;;;7334737;32;20119;-62
2022/07/24 01:47:36;;;;;;;9.38;5.68;;;14.40;99.90;;;;;;7334422;32;20244;-62
2022/07/24 01:51:38;;;;;;;7.07;6.07;;;14.30;99.90;;;;;;7334580;32;20134;-62
2022/07/24 01:55:40;;;;;;;11.05;6.45;;;14.30;99.90;;;;;;7335058;32;20120;-62
2022/07/24 01:59:42;;;;;;;9.82;5.47;;;14.30;99.90;;;;;;7356755;32;20515;-62
2022/07/24 02:03:44;;;;;;;6.55;5.47;;;14.20;99.90;;;;;;7359134;32;20130;-62
2022/07/24 02:07:53;;;;;;;6.55;5.72;;;14.20;99.90;;;;;;7359301;32;20131;-62
2022/07/24 02:11:55;;;;;;;9.70;5.62;;;14.20;99.90;;;;;;7342874;32;20216;-63
2022/07/24 02:15:57;;;;;;;8.18;5.35;;;14.30;99.90;;;;;;7333855;32;20720;-62
2022/07/24 02:19:59;;;;;;;9.13;6.12;;;14.20;99.90;;;;;;7333267;32;20111;-63
2022/07/24 02:24:00;;;;;;;10.23;5.68;;;14.20;99.90;;;;;;7337704;32;20602;-62
2022/07/24 02:28:02;;;;;;;9.70;5.62;;;14.20;99.90;;;;;;7357792;32;20521;-62
2022/07/24 02:32:05;;;;;;;9.02;6.05;;;14.10;99.90;;;;;;7359831;32;20119;-62
2022/07/24 02:36:07;;;;;;;7.35;6.15;;;14.20;99.90;;;;;;7359082;32;20138;-63
2022/07/24 02:40:10;;;;;;;8.90;5.78;;;14.20;99.90;;;;;;7358359;32;20189;-61
2022/07/24 02:44:12;;;;;;;10.98;5.72;;;14.10;99.90;;;;;;7359147;32;20587;-63
2022/07/24 02:48:14;;;;;;;8.38;6.22;;;14.20;99.90;;;;;;7357836;32;20552;-62
2022/07/24 02:52:16;;;;;;;8.50;6.40;;;14.20;99.90;;;;;;7358218;32;20121;-61
2022/07/24 02:56:18;;;;;;;9.82;6.50;;;14.10;99.90;;;;;;7339432;32;20163;-63
2022/07/24 03:00:21;;;;;;;8.40;5.82;;;14.10;99.90;;;;;;7332625;32;20130;-62
2022/07/24 03:04:23;;;;;;;7.62;6.80;;;14.10;99.90;;;;;;7331952;32;20182;-63
2022/07/24 03:08:25;;;;;;;10.45;6.28;;;14.20;99.90;;;;;;7331797;32;20111;-63
2022/07/24 03:12:26;;;;;;;7.35;5.72;;;14.20;99.90;;;;;;7332667;32;20160;-63
2022/07/24 03:16:28;;;;;;;6.82;5.87;;;14.20;99.90;;;;;;7333040;32;20112;-62
2022/07/24 03:20:30;;;;;;;16.52;7.20;;;14.30;99.90;;;;;;7332413;32;20130;-63
2022/07/24 03:24:32;;;;;;;8.88;6.10;;;14.30;99.90;;;;;;7332365;32;20103;-62
2022/07/24 03:28:34;;;;;;;7.15;5.72;;;14.30;99.90;;;;;;7331329;32;20108;-61
2022/07/24 03:32:36;;;;;;;6.85;5.30;;;14.30;99.90;;;;;;7331903;32;20173;-62
2022/07/24 03:36:38;;;;;;;8.35;5.60;;;14.30;99.90;;;;;;7331970;32;20116;-62
2022/07/24 03:40:40;;;;;;;6.50;5.90;;;14.40;99.90;;;;;;7330435;32;20103;-63
2022/07/24 03:44:42;;;;;;;8.80;5.57;;;14.40;99.90;;;;;;7331731;32;20183;-62
2022/07/24 03:48:43;;;;;;;8.82;5.43;;;14.50;99.90;;;;;;7330859;32;20206;-63
2022/07/24 03:52:45;;;;;;;8.52;6.20;;;14.50;99.90;;;;;;7331807;32;20171;-62
2022/07/24 03:56:49;;;;;;;8.45;6.05;;;14.60;99.90;;;;;;7348133;32;20103;-63
2022/07/24 04:00:51;;;;;;;9.65;6.65;;;14.60;99.90;;;;;;7329199;32;20351;-63
2022/07/24 04:04:53;;;;;;;8.32;5.72;;;14.70;99.90;;;;;;7330182;32;20654;-63
2022/07/24 04:08:55;;;;;;;7.72;6.03;;;14.80;99.90;;;;;;7330214;32;20384;-63
2022/07/24 04:12:56;;;;;;;11.15;6.87;;;14.90;99.90;;;;;;7330868;32;20237;-63
2022/07/24 04:16:58;;;;;;;7.55;6.30;;;15.00;99.90;;;;;;7331015;32;20163;-63
2022/07/24 04:21:00;;;;;;;9.45;5.95;;;15.10;99.90;;;;;;7330030;32;20143;-64
2022/07/24 04:25:03;;;;;;;7.18;5.93;;;15.20;99.90;;;;;;7330927;32;20148;-64
2022/07/24 04:29:05;;;;;;;6.85;6.12;;;15.30;99.90;;;;;;7329432;32;20175;-64
2022/07/24 04:33:07;;;;;;;7.40;5.85;;;15.50;99.90;;;;;;7330819;32;20122;-64
2022/07/24 04:37:09;;;;;;;7.05;6.22;;;15.60;99.90;;;;;;7331442;32;20115;-64
2022/07/24 04:41:11;;;;;;;6.62;5.97;;;15.70;99.90;;;;;;7330142;32;20107;-64
2022/07/24 04:45:13;;;;;;;6.35;5.70;;;15.90;99.90;;;;;;7330159;32;20634;-64
2022/07/24 04:49:15;;;;;;;6.53;5.65;;;16.00;99.90;;;;;;7329914;32;20165;-62
2022/07/24 04:53:16;;;;;;;7.12;5.80;;;16.40;99.90;;;;;;7331048;32;20168;-63
2022/07/24 04:57:18;;;;;;;8.95;5.35;;;16.90;99.90;;;;;;7338687;32;20115;-63
2022/07/24 05:01:20;;;;;;;8.18;5.15;;;17.40;99.90;;;;;;7355364;32;20134;-62
2022/07/24 05:05:22;;;;;;;5.30;4.80;;;17.80;99.90;;;;;;7335712;32;20187;-63
2022/07/24 05:09:24;;;;;;;6.97;4.82;;;18.10;99.90;;;;;;7347596;32;20271;-62
2022/07/24 05:13:26;;;;;;;5.50;4.68;;;18.50;99.90;;;;;;7355445;32;20752;-63
2022/07/24 05:17:27;;;;;;;5.00;3.95;;;18.90;99.90;;;;;;7355345;32;20138;-63
2022/07/24 05:21:30;;;;;;;6.47;4.37;;;19.20;99.90;;;;;;7355179;32;20492;-62
2022/07/24 05:25:32;;;;;;;4.95;4.07;;;19.60;99.90;;;;;;7355673;32;20518;-63
2022/07/24 05:29:33;;;;;;;6.80;4.80;;;19.80;99.90;;;;;;7354976;32;20553;-63
2022/07/24 05:33:35;;;;;;;4.95;4.18;;;19.80;99.90;;;;;;7355421;32;20156;-63
2022/07/24 05:37:37;;;;;;;5.70;4.25;;;19.70;99.90;;;;;;7354287;32;20159;-63
2022/07/24 05:41:39;;;;;;;6.62;4.10;;;19.50;99.90;;;;;;7355338;32;20186;-61
2022/07/24 05:45:41;;;;;;;6.32;4.57;;;19.30;99.90;;;;;;7354949;32;20203;-63
2022/07/24 05:49:42;;;;;;;5.35;4.47;;;19.20;99.90;;;;;;7355069;32;20558;-64
2022/07/24 05:53:44;;;;;;;7.90;4.50;;;19.10;99.90;;;;;;7357238;32;20198;-63
2022/07/24 05:57:46;;;;;;;5.70;4.60;;;19.20;99.90;;;;;;7333356;32;20179;-64
2022/07/24 06:01:48;;;;;;;7.62;4.22;;;19.20;99.90;;;;;;7334038;32;20107;-63
2022/07/24 06:05:50;;;;;;;6.10;4.07;;;19.20;99.90;;;;;;7352875;32;20537;-63
2022/07/24 06:09:52;;;;;;;5.32;4.28;;;19.20;99.90;;;;;;7358597;32;20143;-63
2022/07/24 06:13:54;;;;;;;5.55;4.82;;;19.20;99.90;;;;;;7359485;32;20252;-64
2022/07/24 06:17:58;;;;;;;4.85;4.35;;;19.30;99.90;;;;;;7358974;32;20160;-63
2022/07/24 06:22:00;;;;;;;7.28;4.57;;;19.40;99.90;;;;;;7359299;32;20134;-63
2022/07/24 06:26:02;;;;;;;4.30;3.90;;;19.80;99.90;;;;;;7359515;32;20182;-63
2022/07/24 06:30:04;;;;;;;4.72;3.85;;;20.60;99.90;;;;;;7358203;32;20907;-63
2022/07/24 06:34:06;;;;;;;6.30;3.95;;;21.60;99.90;;;;;;7359233;32;20492;-67
2022/07/24 06:38:09;;;;;;;7.25;3.87;;;22.50;99.90;;;;;;7357805;32;20543;-67
2022/07/24 06:42:11;;;;;;;4.65;3.85;;;23.20;99.90;;;;;;7358468;32;20233;-68
2022/07/24 06:46:12;;;;;;;5.87;4.05;;;23.80;99.90;;;;;;7358271;32;20140;-67
2022/07/24 06:50:15;;;;;;;6.03;3.92;;;24.60;99.90;;;;;;7357600;32;20111;-68
2022/07/24 06:54:17;;;;;;;6.68;3.97;;;25.40;99.90;;;;;;7351603;32;20640;-66
2022/07/24 06:58:19;;;;;;;6.65;4.30;;;25.70;99.90;;;;;;7331508;32;20128;-68
2022/07/24 07:02:22;;;;;;;8.20;3.92;;;25.90;99.90;;;;;;7330317;32;20111;-68
2022/07/24 07:06:24;;;;;;;7.97;3.70;;;26.10;99.90;;;;;;7332679;32;20191;-66
2022/07/24 07:10:26;;;;;;;6.12;3.90;;;25.80;99.90;;;;;;7331708;32;20159;-64
2022/07/24 07:14:27;;;;;;;5.97;3.90;;;25.40;99.90;;;;;;7332091;32;20192;-64
2022/07/24 07:18:29;;;;;;;9.15;4.32;;;25.20;99.90;;;;;;7332156;32;20119;-63
2022/07/24 07:22:31;;;;;;;6.97;4.32;;;25.00;99.90;;;;;;7332314;32;20133;-64
2022/07/24 07:26:32;;;;;;;6.05;3.85;;;24.60;99.90;;;;;;7332439;32;20103;-63
2022/07/24 07:30:34;;;;;;;6.05;4.45;;;23.80;99.90;;;;;;7331125;32;20568;-63
2022/07/24 07:34:36;;;;;;;5.25;3.97;;;23.70;99.90;;;;;;7331466;32;20133;-63
2022/07/24 07:38:38;;;;;;;4.90;4.00;;;23.90;99.90;;;;;;7330877;32;20138;-63
2022/07/24 07:42:40;;;;;;;4.20;3.80;;;24.10;99.90;;;;;;7331161;32;20183;-63
2022/07/24 07:46:42;;;;;;;7.55;4.03;;;24.20;99.90;;;;;;7329440;32;20750;-62
2022/07/24 07:50:44;;;;;;;6.47;4.62;;;24.00;99.90;;;;;;7329810;32;20170;-62
2022/07/24 07:54:45;;;;;;;7.62;4.50;;;23.80;99.90;;;;;;7340317;32;20151;-63
2022/07/24 07:58:47;;;;;;;7.03;5.37;;;23.50;99.90;;;;;;7337958;32;20123;-63
2022/07/24 08:02:49;;;;;;;7.12;5.75;;;23.40;99.90;;;;;;7328957;32;20261;-63
2022/07/24 08:06:51;;;;;;;7.53;5.65;;;23.10;99.90;;;;;;7330627;32;20725;-63
2022/07/24 08:10:53;;;;;;;6.75;5.57;;;23.10;99.90;;;;;;7330050;32;20132;-63
2022/07/24 08:14:55;;;;;;;6.18;5.57;;;23.20;99.90;;;;;;7330496;32;20824;-63
2022/07/24 08:18:57;;;;;;;8.13;5.78;;;23.30;99.90;;;;;;7328818;32;20530;-63
2022/07/24 08:22:59;;;;;;;9.18;6.07;;;23.70;99.90;;;;;;7332067;32;20140;-62
2022/07/24 08:27:01;;;;;;;8.18;5.70;;;24.00;99.90;;;;;;7331078;32;20760;-62
2022/07/24 08:31:03;;;;;;;7.20;5.82;;;24.40;99.90;;;;;;7329168;32;20115;-62
2022/07/24 08:35:06;;;;;;;6.82;5.12;;;25.00;99.90;;;;;;7329729;32;20858;-62
2022/07/24 08:39:08;;;;;;;7.97;4.97;;;25.50;99.90;;;;;;7329127;32;20463;-62
2022/07/24 08:43:11;;;;;;;6.95;5.75;;;26.10;99.90;;;;;;7329846;32;20170;-62
2022/07/24 08:47:15;;;;;;;11.02;5.55;;;26.50;99.90;;;;;;7330106;32;20163;-62
2022/07/24 08:51:17;;;;;;;7.95;5.40;;;27.00;99.90;;;;;;7328762;32;20552;-62
2022/07/24 08:55:19;;;;;;;7.12;5.65;;;27.20;99.90;;;;;;7341946;32;20122;-62
2022/07/24 08:59:23;;;;;;;10.15;5.60;;;27.60;99.90;;;;;;7334509;32;20112;-62
2022/07/24 09:03:27;;;;;;;7.83;5.83;;;27.90;99.90;;;;;;7328747;32;20111;-62
2022/07/24 09:07:30;;;;;;;6.97;4.72;;;28.60;99.90;;;;;;7330160;32;20151;-62
2022/07/24 09:11:36;;;;;;;8.57;4.97;;;29.50;99.90;;;;;;7329952;32;20137;-63
2022/07/24 09:15:46;;;;;;;9.30;4.93;;;29.90;99.50;;;;;;7330687;32;20120;-63
2022/07/24 09:19:59;;;;;;;7.30;4.80;;;30.30;99.40;;;;;;7329363;32;20215;-63
2022/07/24 09:24:16;;;;;;;7.25;5.72;;;30.90;98.30;;;;;;7331403;32;20153;-63
2022/07/24 09:28:19;;;;;;;9.63;6.20;;;30.40;95.80;;;;;;7335186;32;20143;-62
2022/07/24 09:32:24;;;;;;;6.87;4.80;;;30.50;95.60;;;;;;7334182;32;20111;-63
2022/07/24 09:36:27;;;;;;;9.35;5.32;;;30.60;94.60;;;;;;7335218;32;20108;-64
2022/07/24 09:40:32;;;;;;;8.52;4.80;;;30.70;92.20;;;;;;7334355;32;20127;-63
2022/07/24 09:44:34;;;;;;;6.47;4.90;;;30.80;93.10;;;;;;7334819;32;20176;-63
2022/07/24 09:48:41;;;;;;;9.82;4.75;;;31.10;93.70;;;;;;7334496;32;20138;-63
2022/07/24 09:52:44;;;;;;;6.47;4.47;;;30.90;91.80;;;;;;7335059;32;20176;-63
2022/07/24 09:56:46;;;;;;;6.68;4.20;;;31.00;91.50;;;;;;7352694;32;20257;-64
2022/07/24 10:00:49;;;;;;;5.82;4.32;;;31.10;91.60;;;;;;7334513;32;20741;-64
2022/07/24 10:04:51;;;;;;;6.80;4.60;;;31.10;90.50;;;;;;7333589;32;20145;-64
2022/07/24 10:08:55;;;;;;;8.13;5.20;;;31.20;91.10;;;;;;7334041;32;20156;-63
2022/07/24 10:12:57;;;;;;;11.43;5.15;;;30.70;90.40;;;;;;7334486;32;20116;-65
2022/07/24 10:17:07;;;;;;;8.30;4.85;;;31.10;89.90;;;;;;7334929;32;20176;-63
2022/07/24 10:21:30;;;;;;;8.73;4.45;;;31.40;90.50;;;;;;7334319;32;20812;-63
2022/07/24 10:25:59;;;;;;;10.40;4.68;;;31.20;87.20;;;;;;7334702;32;20137;-63
2022/07/24 10:30:08;;;;;;;5.93;5.03;;;31.50;88.50;;;;;;7334115;32;20160;-62
2022/07/24 10:34:22;;;;;;;7.47;4.03;;;31.30;86.00;;;;;;7334551;32;20160;-64
2022/07/24 10:38:33;;;;;;;5.30;4.60;;;31.30;89.00;;;;;;7332643;32;20129;-64
2022/07/24 10:43:11;;;;;;;7.47;4.40;;;31.00;86.80;;;;;;7334066;32;20668;-64
2022/07/24 10:47:16;;;;;;;6.93;4.78;;;31.40;90.40;;;;;;7329926;32;20204;-63
2022/07/24 10:51:19;;;;;;;8.35;4.57;;;31.50;87.80;;;;;;7333443;32;20159;-62
2022/07/24 10:55:34;;;;;;;5.62;4.60;;;31.40;85.90;;;;;;7346945;32;20726;-63
2022/07/24 10:59:43;;;;;;;8.90;5.20;;;31.00;89.90;;;;;;7335321;32;20163;-62
2022/07/24 11:03:50;;;;;;;8.43;4.55;;;31.00;87.30;;;;;;7332417;32;20135;-63
2022/07/24 11:08:20;;;;;;;4.78;4.28;;;30.90;88.00;;;;;;7333031;32;20531;-64
2022/07/24 11:12:30;;;;;;;5.15;4.62;;;30.90;88.80;;;;;;7334257;32;20156;-65
2022/07/24 11:16:40;;;;;;;7.10;3.92;;;30.90;86.10;;;;;;7332872;32;20115;-63
2022/07/24 11:20:50;;;;;;;6.70;4.60;;;30.80;86.70;;;;;;7332454;32;20134;-64
2022/07/24 11:25:19;;;;;;;9.18;4.50;;;30.80;86.30;;;;;;7333550;32;20108;-64
2022/07/24 11:29:32;;;;;;;4.85;4.28;;;30.90;85.80;;;;;;7332066;32;20211;-63
2022/07/24 11:33:34;;;;;;;7.75;4.97;;;30.30;88.90;;;;;;7331177;32;20753;-64
2022/07/24 11:37:38;;;;;;;7.68;4.50;;;29.80;85.70;;;;;;7331630;32;20202;-63
2022/07/24 11:41:44;;;;;;;6.20;4.10;;;29.90;90.10;;;;;;7318655;32;20100;-63
2022/07/24 11:45:52;;;;;;;7.18;4.60;;;30.10;90.60;;;;;;7332097;32;20222;-63
2022/07/24 11:50:00;;;;;;;6.28;4.60;;;30.50;84.30;;;;;;7331255;32;20137;-63
2022/07/24 11:54:02;;;;;;;6.15;4.87;;;30.50;87.40;;;;;;7336207;32;20110;-63
2022/07/24 11:58:04;;;;;;;5.18;3.90;;;29.80;83.90;;;;;;7342611;32;20135;-64
2022/07/24 12:02:26;;;;;;;4.65;3.65;;;30.00;83.90;;;;;;7330576;32;20270;-64
2022/07/24 12:06:28;;;;;;;4.82;3.95;;;30.60;81.30;;;;;;7330378;32;20157;-63
2022/07/24 12:10:32;;;;;;;6.80;4.00;;;30.40;82.00;;;;;;7330923;32;20255;-64
2022/07/24 12:14:34;;;;;;;6.68;3.92;;;30.50;76.90;;;;;;7330285;32;20111;-63
2022/07/24 12:18:36;;;;;;;4.87;3.65;;;30.40;79.70;;;;;;7330691;32;20301;-64
2022/07/24 12:22:38;;;;;;;4.95;3.62;;;30.40;79.40;;;;;;7331591;32;20103;-63
2022/07/24 12:27:03;;;;;;;5.40;3.55;;;30.40;77.70;;;;;;7331442;32;20130;-63
2022/07/24 12:31:09;;;;;;;6.43;3.62;;;30.50;82.00;;;;;;7330788;32;20138;-62
2022/07/24 12:35:11;;;;;;;5.43;3.60;;;30.50;82.00;;;;;;7330574;32;20181;-64
2022/07/24 12:39:20;;;;;;;4.85;3.72;;;30.40;75.40;;;;;;7330380;32;20100;-64
2022/07/24 12:43:26;;;;;;;4.87;3.45;;;30.40;77.90;;;;;;7331113;32;20562;-64
2022/07/24 12:47:28;;;;;;;5.43;3.45;;;30.50;78.50;;;;;;7331187;32;20722;-64
2022/07/24 12:51:54;;;;;;;4.70;3.33;;;30.50;73.70;;;;;;7329876;32;20180;-64
2022/07/24 12:56:00;;;;;;;5.80;3.22;;;30.60;72.50;;;;;;7337461;32;20521;-64
2022/07/24 13:00:04;;;;;;;5.90;3.72;;;30.50;75.30;;;;;;7358640;32;20743;-62
2022/07/24 13:04:09;;;;;;;4.97;3.22;;;30.20;76.20;;;;;;7361214;32;20244;-64
2022/07/24 13:08:11;;;;;;;4.30;3.83;;;30.20;73.10;;;;;;7361104;32;20239;-63
2022/07/24 13:12:13;;;;;;;6.43;3.80;;;30.30;75.00;;;;;;7362322;32;20111;-63
2022/07/24 13:16:15;;;;;;;6.70;3.42;;;30.50;73.70;;;;;;7362756;32;20108;-64
2022/07/24 13:20:17;;;;;;;4.45;3.58;;;30.60;75.00;;;;;;7360998;32;20096;-64
2022/07/24 13:24:19;;;;;;;4.45;3.15;;;30.60;71.20;;;;;;7362012;32;20119;-64
2022/07/24 13:28:24;;;;;;;4.17;3.33;;;30.60;74.40;;;;;;7360924;32;20115;-63
2022/07/24 13:32:26;;;;;;;4.95;3.50;;;30.90;72.90;;;;;;7361564;32;20201;-63
2022/07/24 13:36:28;;;;;;;4.45;3.47;;;31.20;72.80;;;;;;7361628;32;20140;-62
2022/07/24 13:40:30;;;;;;;6.00;3.70;;;31.00;71.40;;;;;;7360988;32;20171;-63
2022/07/24 13:44:32;;;;;;;6.07;3.50;;;31.10;70.20;;;;;;7360507;32;20183;-65
2022/07/24 13:48:34;;;;;;;5.95;3.80;;;31.60;71.60;;;;;;7360401;32;20220;-64
2022/07/24 13:52:36;;;;;;;5.55;3.58;;;31.90;69.90;;;;;;7359818;32;20240;-64
2022/07/24 13:56:39;;;;;;;5.68;3.80;;;31.90;68.00;;;;;;7343108;32;20116;-63
2022/07/24 14:00:41;;;;;;;4.68;3.75;;;32.20;67.50;;;;;;7360092;32;20179;-62
2022/07/24 14:04:43;;;;;;;4.68;3.47;;;32.20;70.00;;;;;;7358501;32;20108;-62
2022/07/24 14:08:45;;;;;;;8.85;4.07;;;32.40;66.60;;;;;;7359983;32;20520;-63
2022/07/24 14:12:47;;;;;;;5.97;3.70;;;31.90;68.50;;;;;;7360505;32;20267;-63
2022/07/24 14:16:49;;;;;;;7.20;4.03;;;31.60;73.20;;;;;;7360445;32;20191;-63
2022/07/24 14:20:51;;;;;;;5.70;5.10;;;31.70;71.60;;;;;;7360028;32;20115;-62
2022/07/24 14:24:53;;;;;;;5.62;3.78;;;31.70;70.90;;;;;;7360869;32;20114;-69
2022/07/24 14:28:54;;;;;;;4.55;4.07;;;31.80;69.60;;;;;;7359755;32;20123;-64
2022/07/24 14:32:56;;;;;;;7.37;3.83;;;32.40;69.10;;;;;;7360276;32;20225;-62
2022/07/24 14:36:58;;;;;;;6.12;4.03;;;32.60;67.00;;;;;;7360800;32;20157;-64
2022/07/24 14:41:00;;;;;;;4.87;4.12;;;33.00;66.40;;;;;;7359322;32;20119;-64
2022/07/24 14:45:03;;;;;;;4.37;3.65;;;33.10;68.60;;;;;;7359955;32;20545;-71
2022/07/24 14:49:05;;;;;;;4.70;3.53;;;33.10;67.80;;;;;;7358884;32;20614;-63
2022/07/24 14:53:07;;;;;;;5.97;4.20;;;32.80;68.00;;;;;;7360249;32;20560;-63
2022/07/24 14:57:09;;;;;;;5.90;3.65;;;32.40;69.00;;;;;;7353034;32;20581;-64
2022/07/24 15:01:10;;;;;;;5.12;3.83;;;32.40;68.40;;;;;;7333706;32;20131;-63
2022/07/24 15:05:12;;;;;;;6.28;4.28;;;32.30;69.40;;;;;;7332588;32;20505;-64
2022/07/24 15:09:14;;;;;;;6.20;4.37;;;32.10;72.30;;;;;;7333403;32;20256;-63
2022/07/24 15:13:17;;;;;;;7.20;4.10;;;31.80;70.30;;;;;;7334460;32;20133;-69
2022/07/24 15:17:18;;;;;;;5.57;3.87;;;31.90;68.00;;;;;;7333414;32;20833;-62
2022/07/24 15:21:20;;;;;;;5.43;4.22;;;31.70;70.60;;;;;;7332430;32;20111;-64
2022/07/24 15:25:22;;;;;;;7.93;4.28;;;31.50;69.60;;;;;;7334379;32;20116;-63
2022/07/24 15:29:24;;;;;;;5.45;4.28;;;31.20;71.60;;;;;;7333017;32;20143;-64
2022/07/24 15:33:26;;;;;;;5.32;3.75;;;30.90;74.90;;;;;;7334484;32;20143;-70
2022/07/24 15:37:28;;;;;;;4.30;3.83;;;30.80;75.20;;;;;;7334398;32;20667;-65
2022/07/24 15:41:31;;;;;;;7.07;4.15;;;30.60;74.80;;;;;;7333543;32;20173;-68
2022/07/24 15:45:33;;;;;;;7.05;3.83;;;30.40;75.90;;;;;;7332318;32;20110;-63
2022/07/24 15:49:35;;;;;;;5.30;4.30;;;30.50;76.30;;;;;;7333397;32;20472;-64
2022/07/24 15:53:37;;;;;;;4.32;3.80;;;30.40;77.80;;;;;;7333609;32;20220;-63
2022/07/24 15:57:39;;;;;;;6.03;5.12;;;30.20;75.70;;;;;;7348113;32;20194;-63
2022/07/24 16:01:41;;;;;;;6.68;4.25;;;29.80;74.00;;;;;;7332322;32;20492;-65
2022/07/24 16:05:50;;;;;;;4.53;4.12;;;29.90;77.40;;;;;;7330838;32;20523;-64
2022/07/24 16:09:52;;;;;;;4.32;3.92;;;30.00;76.80;;;;;;7331021;32;20176;-63
2022/07/24 16:13:54;;;;;;;6.57;4.20;;;30.10;73.10;;;;;;7331886;32;20474;-64
2022/07/24 16:17:56;;;;;;;4.97;4.07;;;29.90;75.60;;;;;;7331443;32;20147;-63
2022/07/24 16:21:59;;;;;;;7.28;4.47;;;30.00;74.80;;;;;;7331867;32;20115;-68
2022/07/24 16:26:01;;;;;;;4.78;3.90;;;29.90;75.40;;;;;;7331556;32;20142;-64
2022/07/24 16:30:04;;;;;;;4.87;4.05;;;30.00;72.00;;;;;;7331317;32;20605;-64
2022/07/24 16:34:06;;;;;;;4.15;3.75;;;29.80;75.00;;;;;;7331463;32;20107;-64
2022/07/24 16:38:08;;;;;;;14.13;9.45;;;29.60;76.30;;;;;;7331318;32;20169;-63
2022/07/24 16:42:11;;;;;;;18.25;10.45;;;29.60;78.00;;;;;;7331551;32;20713;-71
2022/07/24 16:46:13;;;;;;;5.78;4.50;;;29.60;78.30;;;;;;7331424;32;20521;-65
2022/07/24 16:50:15;;;;;;;5.30;4.10;;;29.60;75.80;;;;;;7330304;32;20580;-64
2022/07/24 16:54:17;;;;;;;8.85;6.85;;;29.50;78.60;;;;;;7323629;32;20198;-63
2022/07/24 16:58:19;;;;;;;6.07;4.30;;;29.30;79.10;;;;;;7342095;32;20561;-64
2022/07/24 17:02:21;;;;;;;5.97;4.32;;;29.20;78.30;;;;;;7330484;32;20719;-63
2022/07/24 17:06:23;;;;;;;11.15;6.72;;;29.30;77.50;;;;;;7331088;32;20206;-64
2022/07/24 17:10:25;;;;;;;7.20;5.28;;;29.20;74.00;;;;;;7330074;32;20112;-67
2022/07/24 17:14:27;;;;;;;8.25;6.55;;;29.10;77.60;;;;;;7330257;32;20274;-63
2022/07/24 17:18:29;;;;;;;7.12;5.28;;;28.90;78.60;;;;;;7329806;32;20498;-63
2022/07/24 17:22:31;;;;;;;7.93;5.10;;;28.90;77.20;;;;;;7330091;32;20167;-64
2022/07/24 17:26:33;;;;;;;7.47;5.82;;;28.80;79.10;;;;;;7331214;32;20168;-63
2022/07/24 17:30:36;;;;;;;5.90;4.05;;;28.80;78.00;;;;;;7329177;32;20123;-69
2022/07/24 17:34:38;;;;;;;8.20;5.53;;;28.70;78.40;;;;;;7330954;32;20131;-62
2022/07/24 17:38:40;;;;;;;8.70;6.10;;;28.70;84.20;;;;;;7329203;32;20103;-69
2022/07/24 17:42:42;;;;;;;6.05;5.35;;;28.60;79.70;;;;;;7329811;32;20134;-63
2022/07/24 17:46:43;;;;;;;5.22;4.37;;;28.50;80.00;;;;;;7332644;32;20287;-63
2022/07/24 17:50:45;;;;;;;8.13;6.18;;;28.40;88.30;;;;;;7333942;32;20188;-63
2022/07/24 17:54:47;;;;;;;6.72;5.18;;;28.20;84.70;;;;;;7344589;32;20520;-63
2022/07/24 17:58:49;;;;;;;5.97;4.75;;;28.10;86.70;;;;;;7342110;32;20142;-65
2022/07/24 18:02:52;;;;;;;6.53;4.85;;;28.00;84.80;;;;;;7333788;32;20675;-62
2022/07/24 18:06:54;;;;;;;11.88;9.15;;;27.90;90.10;;;;;;7334809;32;20107;-64
2022/07/24 18:11:02;;;;;;;11.30;5.95;;;27.90;92.40;;;;;;7333818;32;20130;-62
2022/07/24 18:15:05;;;;;;;6.68;5.55;;;27.80;95.10;;;;;;7334011;32;20147;-62
2022/07/24 18:19:07;;;;;;;10.00;5.18;;;27.70;98.20;;;;;;7332897;32;20274;-66
2022/07/24 18:23:09;;;;;;;7.65;5.40;;;27.50;99.90;;;;;;7332808;32;20158;-63
2022/07/24 18:27:10;;;;;;;12.20;5.30;;;27.30;99.90;;;;;;7333720;32;20182;-62
2022/07/24 18:31:12;;;;;;;23.15;17.45;;;27.10;99.90;;;;;;7332728;32;20119;-63
2022/07/24 18:35:20;;;;;;;12.95;6.68;;;26.90;99.90;;;;;;7334159;32;20122;-62
2022/07/24 18:39:22;;;;;;;9.25;5.10;;;26.80;99.90;;;;;;7333919;32;20161;-70
2022/07/24 18:43:27;;;;;;;7.47;4.93;;;26.50;99.90;;;;;;7334687;32;20225;-64
2022/07/24 18:47:28;;;;;;;18.37;13.82;;;26.30;99.90;;;;;;7334488;32;20190;-64
2022/07/24 18:51:30;;;;;;;12.45;8.38;;;26.10;99.90;;;;;;7333726;32;20191;-64
2022/07/24 18:55:32;;;;;;;22.77;16.30;;;25.80;99.90;;;;;;7347680;32;20108;-64
2022/07/24 18:59:34;;;;;;;9.23;5.87;;;25.60;99.90;;;;;;7335691;32;20134;-69
2022/07/24 19:03:37;;;;;;;8.93;5.62;;;25.30;99.90;;;;;;7332313;32;20116;-65
2022/07/24 19:07:39;;;;;;;7.75;5.55;;;25.00;99.90;;;;;;7333273;32;20190;-71
2022/07/24 19:11:41;;;;;;;9.30;5.68;;;24.80;99.90;;;;;;7333133;32;20518;-64
2022/07/24 19:15:42;;;;;;;9.45;6.18;;;24.60;99.90;;;;;;7333329;32;20543;-64
2022/07/24 19:19:44;;;;;;;12.63;6.05;;;24.30;99.90;;;;;;7331915;32;20099;-64
2022/07/24 19:23:46;;;;;;;10.82;6.20;;;24.10;99.90;;;;;;7332640;32;20176;-64
2022/07/24 19:27:47;;;;;;;11.38;6.43;;;23.80;99.90;;;;;;7331957;32;20466;-64
2022/07/24 19:31:51;;;;;;;7.10;6.22;;;23.60;99.90;;;;;;7330816;32;20119;-63
2022/07/24 19:35:53;;;;;;;9.38;6.80;;;23.40;99.90;;;;;;7332336;32;20123;-64
2022/07/24 19:39:55;;;;;;;9.30;7.12;;;23.20;99.90;;;;;;7331802;32;20127;-64
2022/07/24 19:43:56;;;;;;;12.05;7.30;;;23.00;99.90;;;;;;7332204;32;20229;-65
2022/07/24 19:47:58;;;;;;;8.32;6.93;;;22.80;99.90;;;;;;7331562;32;20588;-64
2022/07/24 19:52:00;;;;;;;9.70;6.60;;;22.60;99.90;;;;;;7332432;32;20180;-64
2022/07/24 19:56:02;;;;;;;11.32;7.47;;;22.50;99.90;;;;;;7348884;32;20175;-63
2022/07/24 20:00:05;;;;;;;10.07;7.32;;;22.30;99.90;;;;;;7331289;32;20192;-63
2022/07/24 20:04:07;;;;;;;11.57;7.28;;;22.20;99.90;;;;;;7330525;32;20162;-64
2022/07/24 20:08:09;;;;;;;18.73;7.97;;;22.00;99.90;;;;;;7330911;32;20149;-63
2022/07/24 20:12:11;;;;;;;11.75;7.80;;;21.90;99.90;;;;;;7332478;32;20168;-64
2022/07/24 20:16:13;;;;;;;10.27;7.20;;;21.70;99.90;;;;;;7332299;32;20164;-65
2022/07/24 20:20:15;;;;;;;12.48;7.40;;;21.60;99.90;;;;;;7331414;32;20176;-64
2022/07/24 20:24:17;;;;;;;10.52;7.60;;;21.50;99.90;;;;;;7331712;32;20172;-64
2022/07/24 20:28:19;;;;;;;10.63;7.93;;;21.40;99.90;;;;;;7331065;32;20180;-64
2022/07/24 20:32:20;;;;;;;8.73;7.22;;;21.20;99.90;;;;;;7331327;32;20139;-64
2022/07/24 20:36:22;;;;;;;11.68;7.90;;;21.20;99.90;;;;;;7331640;32;20485;-64
2022/07/24 20:40:24;;;;;;;9.82;7.78;;;21.10;99.90;;;;;;7330312;32;20182;-64
2022/07/24 20:44:29;;;;;;;12.27;8.18;;;21.00;99.90;;;;;;7331401;32;20180;-64
2022/07/24 20:48:31;;;;;;;12.10;8.05;;;20.90;99.90;;;;;;7330483;32;20126;-63
2022/07/24 20:52:33;;;;;;;13.35;8.07;;;20.80;99.90;;;;;;7330264;32;20115;-64
2022/07/24 20:56:35;;;;;;;12.82;8.35;;;20.70;99.90;;;;;;7348378;32;20609;-64
2022/07/24 21:00:37;;;;;;;10.27;8.60;;;20.60;99.90;;;;;;7331031;32;20584;-64
2022/07/24 21:04:40;;;;;;;9.02;7.53;;;20.50;99.90;;;;;;7330678;32;20163;-63